Time;durP1;ratioP1;P1;durP2;ratioP2;P2;SDS_P1;SDS_P2;PMS_P1;PMS_P2;Temp;Humidity;BMP_temperature;BMP_pressure;BME280_temperature;BME280_humidity;BME280_pressure;Samples;Min_cycle;Max_cycle;Signal;HPM_P1;HPM_P2
2019/12/19 00:01:34;;;;;;;11.5;7;;;;;;;4.97;82.1084;939.4073;;;;
2019/12/19 00:04:02;;;;;;;13.8;7.8;;;;;;;4.79;83.00781;939.4531;;;;
2019/12/19 00:06:25;;;;;;;13.2;7.7;;;;;;;4.93;82.67285;939.4107;;;;
2019/12/19 00:08:51;;;;;;;13.2;8;;;;;;;4.9;82.58887;939.4127;;;;
2019/12/19 00:11:20;;;;;;;11.6;6.9;;;;;;;4.87;82.88965;939.3986;;;;
2019/12/19 00:13:47;;;;;;;10.6;6.6;;;;;;;4.86;82.36621;939.4675;;;;
2019/12/19 00:16:33;;;;;;;12.7;7.4;;;;;;;4.99;81.81738;939.3928;;;;
2019/12/19 00:18:50;;;;;;;11;6;;;;;;;4.83;82.80176;939.4414;;;;
2019/12/19 00:21:17;;;;;;;10.3;6.4;;;;;;;4.98;81.98438;939.4036;;;;
2019/12/19 00:23:45;;;;;;;13.6;7.9;;;;;;;5;81.94531;939.3703;;;;
2019/12/19 00:26:12;;;;;;;14;8.2;;;;;;;4.98;81.96191;939.3372;;;;
2019/12/19 00:28:38;;;;;;;12.6;7.8;;;;;;;4.96;81.85742;939.2381;;;;
2019/12/19 00:31:03;;;;;;;11.7;7;;;;;;;5;81.49414;939.2662;;;;
2019/12/19 00:33:30;;;;;;;13.7;7.1;;;;;;;5.07;80.92969;939.27;;;;
2019/12/19 00:35:59;;;;;;;13;6.5;;;;;;;4.97;81.3291;939.176;;;;
2019/12/19 00:38:20;;;;;;;10.6;5.9;;;;;;;4.84;81.8916;939.1711;;;;
2019/12/19 00:40:46;;;;;;;10.1;4.8;;;;;;;4.81;82.64844;939.1005;;;;
2019/12/19 00:43:11;;;;;;;7.1;3.2;;;;;;;4.78;84.35742;939.1846;;;;
2019/12/19 00:45:41;;;;;;;5.6;3.4;;;;;;;4.89;83.63477;939.1317;;;;
2019/12/19 00:48:08;;;;;;;6;3.5;;;;;;;5.21;81.99414;939.0458;;;;
2019/12/19 00:50:40;;;;;;;6;3.5;;;;;;;5.42;80.39844;938.9861;;;;
2019/12/19 00:53:08;;;;;;;8;3.8;;;;;;;5.36;80.35449;938.9999;;;;
2019/12/19 00:55:32;;;;;;;6.6;4.1;;;;;;;5.41;79.81152;939.0356;;;;
2019/12/19 00:57:59;;;;;;;4.6;3;;;;;;;5.14;82.03809;939.0214;;;;
2019/12/19 01:00:32;;;;;;;6.1;3.8;;;;;;;5.12;81.70605;938.9363;;;;
2019/12/19 01:03:18;;;;;;;8;4.5;;;;;;;5.04;82.15332;938.9622;;;;
2019/12/19 01:05:34;;;;;;;5.8;3.1;;;;;;;5.24;81.60449;938.8502;;;;
2019/12/19 01:07:53;;;;;;;6.5;4;;;;;;;5.21;81.39648;938.8508;;;;
2019/12/19 01:10:46;;;;;;;7.3;4.1;;;;;;;5.2;80.94336;938.8235;;;;
2019/12/19 01:12:33;;;;;;;6.8;3.5;;;;;;;5.26;81.06836;938.8013;;;;
2019/12/19 01:14:59;;;;;;;4.8;2.9;;;;;;;5.4;80.23828;938.7114;;;;
2019/12/19 01:17:30;;;;;;;7.4;3.8;;;;;;;5.43;79.95215;938.7473;;;;
2019/12/19 01:19:56;;;;;;;6.6;4;;;;;;;5.21;80.09961;938.7571;;;;
2019/12/19 01:22:24;;;;;;;5.7;3.7;;;;;;;5.04;81.00488;938.7737;;;;
2019/12/19 01:24:57;;;;;;;9.1;4.9;;;;;;;5.09;81.09082;938.7592;;;;
2019/12/19 01:27:20;;;;;;;14;6;;;;;;;4.94;82;938.7332;;;;
2019/12/19 01:29:53;;;;;;;11.4;5.1;;;;;;;4.92;82.13184;938.6158;;;;
2019/12/19 01:32:16;;;;;;;10;4.6;;;;;;;5.13;81.61914;938.6208;;;;
2019/12/19 01:34:43;;;;;;;11.9;5.2;;;;;;;5.18;81.08887;938.5862;;;;
2019/12/19 01:37:26;;;;;;;9.2;5.1;;;;;;;5;81.67285;938.5645;;;;
2019/12/19 01:39:54;;;;;;;10.1;4.8;;;;;;;4.86;82.28711;938.5247;;;;
2019/12/19 01:42:22;;;;;;;9.5;4.9;;;;;;;4.8;82.45703;938.529;;;;
2019/12/19 01:45:24;;;;;;;7;4.1;;;;;;;4.79;83.20996;938.4853;;;;
2019/12/19 01:47:48;;;;;;;7.3;4.1;;;;;;;4.83;82.55371;938.498;;;;
2019/12/19 01:50:48;;;;;;;5;3.4;;;;;;;4.8;82.58105;938.4925;;;;
2019/12/19 01:52:42;;;;;;;4.2;2.3;;;;;;;4.75;83.27051;938.4525;;;;
2019/12/19 01:55:09;;;;;;;3.6;2.5;;;;;;;4.9;82.6582;938.4078;;;;
2019/12/19 01:57:39;;;;;;;4.4;2.7;;;;;;;5.08;81.66602;938.408;;;;
2019/12/19 02:00:07;;;;;;;4.7;2.8;;;;;;;5.23;80.19531;938.4402;;;;
2019/12/19 02:02:32;;;;;;;2.7;1.4;;;;;;;5;82.40723;938.3951;;;;
2019/12/19 02:04:56;;;;;;;3;2.2;;;;;;;5.08;81.10156;938.3575;;;;
2019/12/19 02:07:23;;;;;;;6.2;3.1;;;;;;;5.11;80.54297;938.3039;;;;
2019/12/19 02:09:48;;;;;;;5.5;2.8;;;;;;;5.15;80.38281;938.2246;;;;
2019/12/19 02:12:19;;;;;;;5.2;2.8;;;;;;;5.21;79.75;938.2051;;;;
2019/12/19 02:14:46;;;;;;;5.8;3.4;;;;;;;5.23;79.39453;938.209;;;;
2019/12/19 02:17:19;;;;;;;5.5;2.5;;;;;;;5.1;80.46289;938.2072;;;;
2019/12/19 02:19:48;;;;;;;6.9;2.3;;;;;;;5.02;82.15137;938.1569;;;;
2019/12/19 02:22:24;;;;;;;3.3;1.5;;;;;;;5.04;82.10938;938.1662;;;;
2019/12/19 02:24:47;;;;;;;1.8;0.9;;;;;;;5.61;79.44434;938.1328;;;;
2019/12/19 02:27:16;;;;;;;1.7;1;;;;;;;6.06;77.04004;938.0667;;;;
2019/12/19 02:29:44;;;;;;;2.1;0.8;;;;;;;6.54;75.04297;938.0965;;;;
2019/12/19 02:32:15;;;;;;;3.1;1.2;;;;;;;6.67;74.62598;938.0652;;;;
2019/12/19 02:34:40;;;;;;;1.8;1.1;;;;;;;6.72;74.48828;938.1043;;;;
2019/12/19 02:37:09;;;;;;;2.5;1.1;;;;;;;6.73;74.23926;938.1985;;;;
2019/12/19 02:39:36;;;;;;;2.8;1.3;;;;;;;6.78;74.38574;938.1927;;;;
2019/12/19 02:42:04;;;;;;;1.6;0.7;;;;;;;6.82;73.17969;938.1392;;;;
2019/12/19 02:44:30;;;;;;;2.2;1.2;;;;;;;6.97;72.25488;938.1063;;;;
2019/12/19 02:46:58;;;;;;;1.7;1.1;;;;;;;6.83;72.41309;938.1641;;;;
2019/12/19 02:49:23;;;;;;;3.6;1.3;;;;;;;6.63;72.94336;938.2191;;;;
2019/12/19 02:51:48;;;;;;;3.9;1.4;;;;;;;6.52;73.24121;938.2305;;;;
2019/12/19 02:54:16;;;;;;;2.5;1.3;;;;;;;6.26;74.40625;938.1637;;;;
2019/12/19 02:56:57;;;;;;;4;1.3;;;;;;;6.02;75.72266;938.1541;;;;
2019/12/19 02:59:13;;;;;;;3.7;1.8;;;;;;;5.85;76.2334;938.2407;;;;
2019/12/19 03:01:45;;;;;;;4;2.2;;;;;;;5.7;76.65918;938.2569;;;;
2019/12/19 03:04:07;;;;;;;3.5;2;;;;;;;5.58;77.5293;938.3007;;;;
2019/12/19 03:06:36;;;;;;;4;1.9;;;;;;;5.58;77.75586;938.2502;;;;
2019/12/19 03:09:02;;;;;;;2.6;1.7;;;;;;;5.57;77.86719;938.1599;;;;
2019/12/19 03:11:27;;;;;;;3.9;1.9;;;;;;;5.52;78.03613;938.1937;;;;
2019/12/19 03:13:51;;;;;;;3.6;1.9;;;;;;;5.57;77.65039;938.1241;;;;
2019/12/19 03:16:35;;;;;;;3.1;1.9;;;;;;;5.64;77.34766;938.0988;;;;
2019/12/19 03:18:44;;;;;;;3.3;1.9;;;;;;;5.62;77.2207;938.0502;;;;
2019/12/19 03:21:10;;;;;;;3.7;1.9;;;;;;;5.53;77.68945;938.0678;;;;
2019/12/19 03:23:36;;;;;;;4;1.8;;;;;;;5.55;77.29785;938.0005;;;;
2019/12/19 03:26:21;;;;;;;4.4;2;;;;;;;5.53;77.30566;938.0103;;;;
2019/12/19 03:28:51;;;;;;;2.3;1.6;;;;;;;5.4;78.14941;938.0424;;;;
2019/12/19 03:31:19;;;;;;;2.2;1.3;;;;;;;5.26;79.08398;938.0038;;;;
2019/12/19 03:33:46;;;;;;;3.2;1.8;;;;;;;5.21;78.97168;937.9565;;;;
2019/12/19 03:36:10;;;;;;;3;1.5;;;;;;;5.31;79.3418;937.9391;;;;
2019/12/19 03:38:37;;;;;;;2.8;1.6;;;;;;;5.38;78.42871;937.9243;;;;
2019/12/19 03:41:24;;;;;;;4.9;2.6;;;;;;;5.28;78.76172;937.8616;;;;
2019/12/19 03:44:03;;;;;;;4.7;2;;;;;;;5.21;79.28809;937.8714;;;;
2019/12/19 03:46:31;;;;;;;2.9;1.5;;;;;;;5.32;78.59863;937.8621;;;;
2019/12/19 03:48:51;;;;;;;2.7;1.5;;;;;;;5.35;78.13184;937.8928;;;;
2019/12/19 03:51:18;;;;;;;3.2;1.4;;;;;;;5.37;78.48145;937.7147;;;;
2019/12/19 03:53:47;;;;;;;2;1.1;;;;;;;5.31;78.12402;937.7874;;;;
2019/12/19 03:56:08;;;;;;;2.9;1.4;;;;;;;5.18;78.86719;937.6746;;;;
2019/12/19 03:58:39;;;;;;;2.5;1.3;;;;;;;5.27;78.54395;937.8265;;;;
2019/12/19 04:02:45;;;;;;;1.5;0.9;;;;;;;5.38;79.41113;937.7586;;;;
2019/12/19 04:05:07;;;;;;;2.6;1.2;;;;;;;5.38;78.75684;937.6417;;;;
2019/12/19 04:07:33;;;;;;;1.9;1;;;;;;;5.44;79.10547;937.6578;;;;
2019/12/19 04:10:00;;;;;;;2.1;0.9;;;;;;;5.6;78.67285;937.6828;;;;
2019/12/19 04:12:27;;;;;;;1.7;0.8;;;;;;;5.84;77.21582;937.7473;;;;
2019/12/19 04:14:56;;;;;;;2.1;1.2;;;;;;;5.99;76.82227;937.7261;;;;
2019/12/19 04:17:27;;;;;;;1.4;0.8;;;;;;;6.17;74.51465;937.7079;;;;
2019/12/19 04:19:55;;;;;;;1.5;0.9;;;;;;;6.35;74.87402;937.6344;;;;
2019/12/19 04:22:28;;;;;;;2.3;1;;;;;;;6.27;75.20117;937.7828;;;;
2019/12/19 04:24:57;;;;;;;2.2;1.2;;;;;;;6.25;74.9375;937.7516;;;;
2019/12/19 04:27:27;;;;;;;4.2;1.5;;;;;;;6.21;75.00781;937.7314;;;;
2019/12/19 04:29:57;;;;;;;2.6;1;;;;;;;6.38;73.91992;937.6552;;;;
2019/12/19 04:32:21;;;;;;;3.3;1.3;;;;;;;6.17;74.50586;937.7436;;;;
2019/12/19 04:34:49;;;;;;;5.3;2.6;;;;;;;5.95;75.83301;937.7046;;;;
2019/12/19 04:37:16;;;;;;;6.5;3.3;;;;;;;5.87;76.27148;937.7228;;;;
2019/12/19 04:39:46;;;;;;;6.3;4.4;;;;;;;5.83;76.44336;937.7888;;;;
2019/12/19 04:42:12;;;;;;;3.4;1.9;;;;;;;5.72;76.16602;937.7803;;;;
2019/12/19 04:44:44;;;;;;;3.5;2;;;;;;;5.96;75.87988;937.8351;;;;
2019/12/19 04:47:08;;;;;;;3.8;2.6;;;;;;;6.09;75.7793;937.7781;;;;
2019/12/19 04:49:36;;;;;;;5.6;3.5;;;;;;;6.14;75.33496;937.8748;;;;
2019/12/19 04:51:59;;;;;;;3.9;2.3;;;;;;;6.1;75.54395;937.9111;;;;
2019/12/19 04:54:25;;;;;;;4.2;2.5;;;;;;;6.27;75.23535;937.782;;;;
2019/12/19 04:57:02;;;;;;;2.3;1.6;;;;;;;6.41;74.56934;937.9075;;;;
2019/12/19 04:59:21;;;;;;;1.8;1.1;;;;;;;6.43;74.37988;937.9016;;;;
2019/12/19 05:01:49;;;;;;;2;1.1;;;;;;;6.51;73.91895;937.872;;;;
2019/12/19 05:04:13;;;;;;;1.8;1.1;;;;;;;6.67;72.75977;937.884;;;;
2019/12/19 05:06:39;;;;;;;2.7;1.5;;;;;;;6.69;72.93262;937.9288;;;;
2019/12/19 05:09:07;;;;;;;1.9;0.8;;;;;;;6.78;72.40332;937.8334;;;;
2019/12/19 05:11:33;;;;;;;1.7;0.9;;;;;;;6.96;71.38281;937.7981;;;;
2019/12/19 05:13:58;;;;;;;1.9;1.1;;;;;;;7.06;71.17285;937.7492;;;;
2019/12/19 05:16:31;;;;;;;2.2;1.1;;;;;;;7.06;71.22949;937.7912;;;;
2019/12/19 05:18:59;;;;;;;2.7;1.1;;;;;;;7.07;71.39941;937.7787;;;;
2019/12/19 05:21:28;;;;;;;3.4;1.2;;;;;;;6.95;71.48145;937.7014;;;;
2019/12/19 05:24:04;;;;;;;2;1.2;;;;;;;6.86;72.16992;937.6916;;;;
2019/12/19 05:26:31;;;;;;;1.8;1;;;;;;;6.86;72.52051;937.6417;;;;
2019/12/19 05:28:52;;;;;;;1.2;0.9;;;;;;;6.88;72.63672;937.6674;;;;
2019/12/19 05:31:19;;;;;;;1.8;1.1;;;;;;;6.95;71.24219;937.7139;;;;
2019/12/19 05:36:44;;;;;;;2.8;1.2;;;;;;;7.18;70.7373;937.6376;;;;
2019/12/19 05:39:13;;;;;;;2.3;1.2;;;;;;;7.26;70.56934;937.6245;;;;
2019/12/19 05:41:41;;;;;;;2.1;1.2;;;;;;;7.33;70.58105;937.6164;;;;
2019/12/19 05:44:10;;;;;;;1.7;1.1;;;;;;;7.4;70.15137;937.743;;;;
2019/12/19 05:46:32;;;;;;;2.5;1.1;;;;;;;7.36;69.64551;937.793;;;;
2019/12/19 05:48:57;;;;;;;2.1;1;;;;;;;7.58;68.57031;937.7589;;;;
2019/12/19 05:52:13;;;;;;;2.3;1;;;;;;;7.56;68.61133;937.6602;;;;
2019/12/19 05:53:59;;;;;;;2.7;1.1;;;;;;;7.78;68.47754;937.664;;;;
2019/12/19 05:56:16;;;;;;;4.2;1.2;;;;;;;7.76;68.66699;937.6691;;;;
2019/12/19 05:58:41;;;;;;;4.5;2.2;;;;;;;7.68;70.55957;937.7056;;;;
2019/12/19 06:01:06;;;;;;;4;1.9;;;;;;;7.54;68.98438;937.6337;;;;
2019/12/19 06:03:32;;;;;;;5.9;2.6;;;;;;;7.25;70.68164;937.6149;;;;
2019/12/19 06:05:58;;;;;;;3.6;2;;;;;;;7.23;70.85938;937.6722;;;;
2019/12/19 06:08:22;;;;;;;6.9;3.2;;;;;;;7.1;71.48242;937.6558;;;;
2019/12/19 06:10:52;;;;;;;7.7;3.2;;;;;;;7.1;71.7998;937.8046;;;;
2019/12/19 06:13:17;;;;;;;14;6.5;;;;;;;7.08;72.3291;937.7092;;;;
2019/12/19 06:15:46;;;;;;;9.3;4.2;;;;;;;7.03;72.08398;937.7541;;;;
2019/12/19 06:18:12;;;;;;;8.4;4.9;;;;;;;6.94;72.23828;937.7099;;;;
2019/12/19 06:20:47;;;;;;;10.6;5.5;;;;;;;7.01;72.25098;937.718;;;;
2019/12/19 06:23:15;;;;;;;10.2;5.2;;;;;;;7.03;72.42188;937.6423;;;;
2019/12/19 06:25:52;;;;;;;8.2;5.3;;;;;;;7.06;72.22461;937.6493;;;;
2019/12/19 06:28:24;;;;;;;8.5;5.3;;;;;;;6.91;72.82324;937.6396;;;;
2019/12/19 06:30:59;;;;;;;11.6;6;;;;;;;6.81;73.33789;937.627;;;;
2019/12/19 06:33:21;;;;;;;7.8;5.4;;;;;;;6.7;73.76074;937.6797;;;;
2019/12/19 06:35:39;;;;;;;9.9;5.7;;;;;;;6.74;73.56348;937.7034;;;;
2019/12/19 06:38:18;;;;;;;10.7;6.3;;;;;;;6.67;73.76563;937.6347;;;;
2019/12/19 06:40:44;;;;;;;11.2;6.7;;;;;;;6.69;73.63477;937.5411;;;;
2019/12/19 06:43:12;;;;;;;15.1;9.1;;;;;;;6.62;73.91602;937.6035;;;;
2019/12/19 06:45:45;;;;;;;26.3;13;;;;;;;6.65;73.7627;937.6375;;;;
2019/12/19 06:48:09;;;;;;;81.9;37.4;;;;;;;6.47;74.41992;937.6163;;;;
2019/12/19 06:50:36;;;;;;;73.9;34.9;;;;;;;6.25;75.55957;937.5989;;;;
2019/12/19 06:53:02;;;;;;;55.8;27.4;;;;;;;6.15;76.06152;937.6475;;;;
2019/12/19 06:55:29;;;;;;;58.5;28.6;;;;;;;6.17;76.22168;937.6178;;;;
2019/12/19 06:57:58;;;;;;;41.6;20.5;;;;;;;6.24;75.74902;937.5797;;;;
2019/12/19 07:00:27;;;;;;;36.1;18.4;;;;;;;6.39;74.93848;937.6781;;;;
2019/12/19 07:02:54;;;;;;;48.1;23.4;;;;;;;6.55;74.3916;937.608;;;;
2019/12/19 07:05:19;;;;;;;42.4;21.8;;;;;;;6.55;73.87012;937.668;;;;
2019/12/19 07:07:48;;;;;;;39.9;20.9;;;;;;;6.34;74.5;937.5876;;;;
2019/12/19 07:10:13;;;;;;;31.6;18.2;;;;;;;6.21;75.03027;937.7267;;;;
2019/12/19 07:12:41;;;;;;;38.7;22.6;;;;;;;5.98;76.22168;937.7283;;;;
2019/12/19 07:15:05;;;;;;;44.5;25.2;;;;;;;5.95;76.68066;937.8145;;;;
2019/12/19 07:17:31;;;;;;;32.3;18.7;;;;;;;6.09;75.92773;937.7869;;;;
2019/12/19 07:19:58;;;;;;;26.6;14.8;;;;;;;6.15;75.75684;937.7275;;;;
2019/12/19 07:22:26;;;;;;;24.3;13.6;;;;;;;6.24;75.29688;937.7014;;;;
2019/12/19 07:24:57;;;;;;;36.7;19.5;;;;;;;6.3;74.96875;937.6964;;;;
2019/12/19 07:27:21;;;;;;;47.2;26.3;;;;;;;6.3;75.97656;937.6981;;;;
2019/12/19 07:29:50;;;;;;;38.9;20.8;;;;;;;6.5;75.10645;937.7436;;;;
2019/12/19 07:32:13;;;;;;;35.9;20.2;;;;;;;6.58;74.37207;937.7928;;;;
2019/12/19 07:34:37;;;;;;;35.4;18.7;;;;;;;6.68;73.71094;937.7908;;;;
2019/12/19 07:37:03;;;;;;;27.4;14.4;;;;;;;6.58;74.01172;937.8103;;;;
2019/12/19 07:39:29;;;;;;;15.1;9;;;;;;;6.58;73.61426;937.7841;;;;
2019/12/19 07:41:54;;;;;;;13.6;8;;;;;;;6.76;72.94336;937.7033;;;;
2019/12/19 07:44:18;;;;;;;15.1;7.8;;;;;;;6.78;72.78809;937.7313;;;;
2019/12/19 07:46:51;;;;;;;14.7;6.6;;;;;;;6.76;72.60449;937.6858;;;;
2019/12/19 07:49:15;;;;;;;12.9;7.3;;;;;;;6.75;72.68164;937.6887;;;;
2019/12/19 07:51:48;;;;;;;19;9.6;;;;;;;6.97;72.63965;937.6353;;;;
2019/12/19 07:54:20;;;;;;;19.5;9.9;;;;;;;7.17;71.34961;937.6644;;;;
2019/12/19 07:56:52;;;;;;;12.6;7.5;;;;;;;7.04;71.46289;937.7147;;;;
2019/12/19 07:59:25;;;;;;;9.7;5.2;;;;;;;6.93;71.86523;937.7667;;;;
2019/12/19 08:01:53;;;;;;;9;4.9;;;;;;;7.12;71.23828;937.7758;;;;
2019/12/19 08:06:51;;;;;;;13.8;5.5;;;;;;;7.22;70.79004;937.7133;;;;
2019/12/19 08:09:15;;;;;;;6.8;3.9;;;;;;;7.43;70.25781;937.6791;;;;
2019/12/19 08:11:39;;;;;;;14.5;8.1;;;;;;;8.11;70.0166;937.6053;;;;
2019/12/19 08:14:09;;;;;;;12.4;5.5;;;;;;;9.24;62.5625;937.616;;;;
2019/12/19 08:16:34;;;;;;;6;3.1;;;;;;;10.58;57.00391;937.6387;;;;
2019/12/19 08:18:59;;;;;;;11.3;4.9;;;;;;;11.19;56.38574;937.616;;;;
2019/12/19 08:21:28;;;;;;;8.2;4.7;;;;;;;11.09;56.73828;937.6816;;;;
2019/12/19 08:23:50;;;;;;;6.9;4;;;;;;;11.28;56.78613;937.5507;;;;
2019/12/19 08:26:18;;;;;;;8.8;4.4;;;;;;;11.81;55.13867;937.5893;;;;
2019/12/19 08:29:16;;;;;;;8.4;4.3;;;;;;;12.54;53.91211;937.4807;;;;
2019/12/19 08:31:35;;;;;;;6.1;3.2;;;;;;;14.01;48.25879;937.4964;;;;
2019/12/19 08:34:00;;;;;;;8.7;4.1;;;;;;;14.36;47.63965;937.5078;;;;
2019/12/19 08:36:28;;;;;;;9.6;4.5;;;;;;;14.36;47.61816;937.4302;;;;
2019/12/19 08:38:53;;;;;;;8;3.8;;;;;;;14.24;47.12109;937.3116;;;;
2019/12/19 08:41:16;;;;;;;7.4;2.8;;;;;;;13.49;48.54492;937.2676;;;;
2019/12/19 08:43:42;;;;;;;5.1;2.3;;;;;;;13.16;48.57715;937.2165;;;;
2019/12/19 08:46:06;;;;;;;8.3;3.4;;;;;;;13.12;51.41016;937.2725;;;;
2019/12/19 08:48:34;;;;;;;4.7;2.1;;;;;;;12.62;49.84863;937.314;;;;
2019/12/19 08:50:59;;;;;;;5.2;1.8;;;;;;;12.19;50.46387;937.3033;;;;
2019/12/19 08:53:31;;;;;;;7.8;1.8;;;;;;;11.97;51.02148;937.1876;;;;
2019/12/19 08:58:34;;;;;;;4.5;1.9;;;;;;;12.16;52.87891;937.1579;;;;
2019/12/19 09:01:00;;;;;;;9;3;;;;;;;12.2;53.7666;937.1316;;;;
2019/12/19 09:03:25;;;;;;;18.6;2.9;;;;;;;12.23;53.84863;937.0577;;;;
2019/12/19 09:05:56;;;;;;;17.4;3;;;;;;;12.06;53.12988;936.951;;;;
2019/12/19 09:08:36;;;;;;;11.9;2.9;;;;;;;12.2;53.57129;936.8666;;;;
2019/12/19 09:10:54;;;;;;;19.3;3;;;;;;;12.34;52.7627;936.9029;;;;
2019/12/19 09:13:22;;;;;;;39.9;4.3;;;;;;;12.43;53.8418;936.9416;;;;
2019/12/19 09:16:23;;;;;;;61.5;5.9;;;;;;;12.17;54.36914;936.8881;;;;
2019/12/19 09:18:53;;;;;;;18.9;3.8;;;;;;;12.16;53.72656;936.8833;;;;
2019/12/19 09:21:23;;;;;;;52.6;5.2;;;;;;;12.38;53.70898;936.8239;;;;
2019/12/19 09:23:43;;;;;;;23.6;8.3;;;;;;;12.2;56.82715;936.7748;;;;
2019/12/19 09:26:09;;;;;;;18.7;8.9;;;;;;;11.87;57.03613;936.8809;;;;
2019/12/19 09:28:33;;;;;;;17.9;7.3;;;;;;;12.03;57.46875;936.8273;;;;
2019/12/19 09:31:13;;;;;;;22.1;6.6;;;;;;;12.13;55.46484;936.8514;;;;
2019/12/19 09:34:16;;;;;;;21.6;4.4;;;;;;;12.11;54.01855;936.8066;;;;
2019/12/19 09:36:46;;;;;;;23.5;5.6;;;;;;;12.31;55.46484;936.7233;;;;
2019/12/19 09:39:10;;;;;;;50.2;7.1;;;;;;;12.46;55.38184;936.6692;;;;
2019/12/19 09:41:37;;;;;;;41.1;6;;;;;;;12.69;54.01074;936.5806;;;;
2019/12/19 09:44:06;;;;;;;60.2;6.9;;;;;;;12.81;52.42969;936.558;;;;
2019/12/19 09:46:42;;;;;;;28.4;3.9;;;;;;;13.07;50.36035;936.4604;;;;
2019/12/19 09:49:10;;;;;;;7.6;2.9;;;;;;;13.45;51.05859;936.3455;;;;
2019/12/19 09:51:38;;;;;;;11.1;2.8;;;;;;;13.62;49.24902;936.2249;;;;
2019/12/19 09:54:12;;;;;;;13.2;2.6;;;;;;;13.83;47.11133;936.1398;;;;
2019/12/19 09:56:34;;;;;;;33;4.3;;;;;;;13.97;47.5293;936.0756;;;;
2019/12/19 09:59:05;;;;;;;14.9;2.5;;;;;;;14.14;46.16699;936.0082;;;;
2019/12/19 10:01:35;;;;;;;13.7;2.4;;;;;;;14.34;46.41797;935.9941;;;;
2019/12/19 10:04:01;;;;;;;6.1;2;;;;;;;14.57;45.18555;935.9661;;;;
2019/12/19 10:06:33;;;;;;;74.8;5.9;;;;;;;14.79;44.89746;935.9353;;;;
2019/12/19 10:08:57;;;;;;;102;9.8;;;;;;;14.77;44.96387;935.962;;;;
2019/12/19 10:12:42;;;;;;;24.6;3.4;;;;;;;14.65;45.22852;935.9327;;;;
2019/12/19 10:13:53;;;;;;;15;2.3;;;;;;;14.9;45.03516;935.855;;;;
2019/12/19 10:16:25;;;;;;;32.6;3.7;;;;;;;14.9;45.47461;935.8117;;;;
2019/12/19 10:18:54;;;;;;;18.6;2.3;;;;;;;15.06;44.70703;935.7108;;;;
2019/12/19 10:21:22;;;;;;;21.2;3.1;;;;;;;15.24;43.70801;935.7402;;;;
2019/12/19 10:23:49;;;;;;;31;3.8;;;;;;;15.31;43.92285;935.7209;;;;
2019/12/19 10:26:13;;;;;;;18.7;2.6;;;;;;;15.28;41.73828;935.6731;;;;
2019/12/19 10:28:40;;;;;;;25.2;3;;;;;;;15.35;39.89844;935.6264;;;;
2019/12/19 10:31:08;;;;;;;14.9;2.6;;;;;;;15.36;41.74707;935.5982;;;;
2019/12/19 10:33:37;;;;;;;16.7;2.6;;;;;;;15.54;42.80371;935.6049;;;;
2019/12/19 10:36:05;;;;;;;21.7;2.9;;;;;;;15.56;42.68945;935.6046;;;;
2019/12/19 10:38:29;;;;;;;11.6;2.3;;;;;;;15.75;41.35547;935.6041;;;;
2019/12/19 10:41:03;;;;;;;10.6;1.7;;;;;;;15.84;41.33008;935.5901;;;;
2019/12/19 10:43:35;;;;;;;13.9;1.8;;;;;;;15.87;41.37891;935.5207;;;;
2019/12/19 10:46:06;;;;;;;15.9;2.6;;;;;;;15.75;41.06641;935.4387;;;;
2019/12/19 10:48:29;;;;;;;9;1.9;;;;;;;15.83;42.7041;935.4322;;;;
2019/12/19 10:50:55;;;;;;;11.5;2.5;;;;;;;15.85;42.30176;935.4222;;;;
2019/12/19 10:53:23;;;;;;;44;5.2;;;;;;;15.82;40.22949;935.3722;;;;
2019/12/19 10:55:50;;;;;;;42.5;6.1;;;;;;;15.81;41.51172;935.2861;;;;
2019/12/19 10:58:15;;;;;;;21.1;2.9;;;;;;;15.79;40.66602;935.1877;;;;
2019/12/19 11:00:45;;;;;;;12.2;2.7;;;;;;;15.96;41.86133;935.2285;;;;
2019/12/19 11:03:17;;;;;;;29;3.6;;;;;;;15.98;42.33691;935.2307;;;;
2019/12/19 11:05:41;;;;;;;33.3;5.4;;;;;;;16.03;42.37695;935.1458;;;;
2019/12/19 11:10:54;;;;;;;17.4;2.8;;;;;;;16.1;40.20898;934.9752;;;;
2019/12/19 11:13:03;;;;;;;11.8;1.7;;;;;;;16.18;39.78906;934.8814;;;;
2019/12/19 11:15:31;;;;;;;24.2;3.2;;;;;;;16.34;39.79199;934.8226;;;;
2019/12/19 11:17:56;;;;;;;27.4;3.4;;;;;;;16.51;38.93945;934.7699;;;;
2019/12/19 11:20:21;;;;;;;20.4;3.1;;;;;;;16.49;38.8916;934.7253;;;;
2019/12/19 11:22:49;;;;;;;11;2.2;;;;;;;16.72;38.40234;934.6514;;;;
2019/12/19 11:25:16;;;;;;;7.9;1.6;;;;;;;16.78;37.09863;934.5586;;;;
2019/12/19 11:27:39;;;;;;;13.5;1.8;;;;;;;16.87;37.21094;934.6157;;;;
2019/12/19 11:30:03;;;;;;;9.8;1.6;;;;;;;17.09;37.75;934.5527;;;;
2019/12/19 11:32:35;;;;;;;6.5;1.7;;;;;;;17.23;37.08984;934.5427;;;;
2019/12/19 11:35:08;;;;;;;9.9;1.8;;;;;;;17.11;35.76953;934.4622;;;;
2019/12/19 11:37:33;;;;;;;26.4;2.5;;;;;;;17.08;34.13379;934.4426;;;;
2019/12/19 11:40:02;;;;;;;4.2;1;;;;;;;17.19;33.46973;934.408;;;;
2019/12/19 11:42:30;;;;;;;19.1;2.5;;;;;;;17.08;35.88379;934.4554;;;;
2019/12/19 11:44:56;;;;;;;13.5;1.9;;;;;;;17.09;34.93457;934.3716;;;;
2019/12/19 11:47:27;;;;;;;29.9;3.2;;;;;;;17.15;34.68359;934.3148;;;;
2019/12/19 11:49:53;;;;;;;9.9;1.6;;;;;;;17.11;34.86621;934.2827;;;;
2019/12/19 11:52:19;;;;;;;14.5;2.1;;;;;;;17.17;35.1377;934.3482;;;;
2019/12/19 11:54:45;;;;;;;13.7;2.7;;;;;;;17.05;35.42871;934.3766;;;;
2019/12/19 11:57:18;;;;;;;11.7;1.9;;;;;;;17.07;36.64746;934.3528;;;;
2019/12/19 12:00:18;;;;;;;7.9;1.9;;;;;;;16.91;36.80762;934.3438;;;;
2019/12/19 12:02:48;;;;;;;11.5;2.4;;;;;;;17.04;36.55273;934.2545;;;;
2019/12/19 12:05:19;;;;;;;8.5;1.7;;;;;;;16.86;36.91992;934.2162;;;;
2019/12/19 12:07:45;;;;;;;13.1;1.9;;;;;;;16.89;35.64844;934.2463;;;;
2019/12/19 12:10:09;;;;;;;6.3;1.6;;;;;;;16.92;35.38477;934.1997;;;;
2019/12/19 12:12:36;;;;;;;6.7;1.9;;;;;;;16.98;34.74023;934.2039;;;;
2019/12/19 12:15:03;;;;;;;7.4;1.5;;;;;;;17.09;35.28125;934.1747;;;;
2019/12/19 12:17:30;;;;;;;15.1;2.3;;;;;;;17.31;34.54492;934.1224;;;;
2019/12/19 12:19:55;;;;;;;7.8;1.4;;;;;;;17.27;33.37109;934.1483;;;;
2019/12/19 12:22:26;;;;;;;7.2;1.4;;;;;;;17.22;33.87695;934.1797;;;;
2019/12/19 12:25:34;;;;;;;8.1;1.4;;;;;;;17.24;33.64648;934.2062;;;;
2019/12/19 12:27:13;;;;;;;2.9;1;;;;;;;17.14;33.33887;934.1017;;;;
2019/12/19 12:29:40;;;;;;;5.3;1.1;;;;;;;17.14;33.7666;934.0809;;;;
2019/12/19 12:32:10;;;;;;;4.6;1.1;;;;;;;17.23;33.36816;934.0583;;;;
2019/12/19 12:34:42;;;;;;;5.8;1.3;;;;;;;17.19;33.74805;933.9622;;;;
2019/12/19 12:37:07;;;;;;;5.2;1.2;;;;;;;17.29;32.67773;934.0608;;;;
2019/12/19 12:39:32;;;;;;;4.6;1.1;;;;;;;17.34;32.92383;934.0034;;;;
2019/12/19 12:42:01;;;;;;;10.4;1.4;;;;;;;17.48;33.66602;934.0165;;;;
2019/12/19 12:44:27;;;;;;;4.4;1.1;;;;;;;17.54;33.40332;933.957;;;;
2019/12/19 12:46:54;;;;;;;18.5;2.4;;;;;;;17.56;33.03418;933.9645;;;;
2019/12/19 12:49:21;;;;;;;15.1;1.9;;;;;;;17.57;33.3125;933.97;;;;
2019/12/19 12:51:49;;;;;;;6.1;1.2;;;;;;;17.67;31.38184;933.9244;;;;
2019/12/19 12:54:14;;;;;;;3;1;;;;;;;17.81;32.30957;933.942;;;;
2019/12/19 12:56:48;;;;;;;5.1;1;;;;;;;17.62;33.15332;933.8738;;;;
2019/12/19 12:59:03;;;;;;;5.9;1.2;;;;;;;17.52;33.63379;933.9327;;;;
2019/12/19 13:01:37;;;;;;;3.5;0.9;;;;;;;17.4;34.01855;933.8981;;;;
2019/12/19 13:04:01;;;;;;;6.2;1.1;;;;;;;17.3;33.73242;934.002;;;;
2019/12/19 13:06:30;;;;;;;4;1;;;;;;;17.34;33.43457;933.963;;;;
2019/12/19 13:08:57;;;;;;;8.2;1.6;;;;;;;17.33;34.22266;933.8312;;;;
2019/12/19 13:11:27;;;;;;;1.8;0.8;;;;;;;17.32;34.15137;933.8879;;;;
2019/12/19 13:13:55;;;;;;;5.9;1.9;;;;;;;17.27;34.32227;933.7997;;;;
2019/12/19 13:16:22;;;;;;;11;1.6;;;;;;;17.45;34.7998;933.866;;;;
2019/12/19 13:18:46;;;;;;;3.9;1;;;;;;;17.49;34.28223;933.9123;;;;
2019/12/19 13:21:11;;;;;;;5.1;1.3;;;;;;;17.63;33.75879;933.9028;;;;
2019/12/19 13:23:37;;;;;;;6.4;1.2;;;;;;;17.75;34.34766;933.8744;;;;
2019/12/19 13:26:06;;;;;;;3.9;1;;;;;;;17.73;33.39453;933.8611;;;;
2019/12/19 13:28:38;;;;;;;16.9;1.6;;;;;;;18.11;33.13281;933.8432;;;;
2019/12/19 13:31:20;;;;;;;4.9;1.3;;;;;;;18.97;31.32422;933.8878;;;;
2019/12/19 13:34:20;;;;;;;5.3;1.2;;;;;;;19.45;30.55371;933.8286;;;;
2019/12/19 13:36:52;;;;;;;13.1;2.1;;;;;;;19.33;30.75488;933.8452;;;;
2019/12/19 13:39:18;;;;;;;12.9;1.7;;;;;;;19.19;31.09473;933.8508;;;;
2019/12/19 13:41:45;;;;;;;5.1;1.3;;;;;;;18.66;30.96484;933.8329;;;;
2019/12/19 13:44:21;;;;;;;6.3;1.4;;;;;;;18.62;31.75195;933.8095;;;;
2019/12/19 13:47:00;;;;;;;7;1.3;;;;;;;18.84;31.36133;933.7313;;;;
2019/12/19 13:49:28;;;;;;;4.2;1;;;;;;;18.54;31.32813;933.6454;;;;
2019/12/19 13:52:19;;;;;;;4.4;1.3;;;;;;;18.32;32.41602;933.7434;;;;
2019/12/19 13:54:34;;;;;;;19.8;2.6;;;;;;;18.17;33.56738;933.6989;;;;
2019/12/19 13:57:06;;;;;;;15.8;2.3;;;;;;;17.81;34.16699;933.7133;;;;
2019/12/19 14:02:10;;;;;;;11.6;3;;;;;;;17.06;36.12598;933.6531;;;;
2019/12/19 14:04:35;;;;;;;29.5;5.1;;;;;;;16.97;36.7666;933.6774;;;;
2019/12/19 14:07:28;;;;;;;19.4;3.9;;;;;;;16.92;37.97949;933.6165;;;;
2019/12/19 14:09:58;;;;;;;13.6;4;;;;;;;16.53;38.26855;933.5519;;;;
2019/12/19 14:12:25;;;;;;;22;4.5;;;;;;;16.44;39.30371;933.5594;;;;
2019/12/19 14:14:55;;;;;;;28.2;5.3;;;;;;;16.35;39.9668;933.572;;;;
2019/12/19 14:17:21;;;;;;;14.6;3.9;;;;;;;16.09;39.53809;933.5592;;;;
2019/12/19 14:19:49;;;;;;;15.1;3.5;;;;;;;15.8;40.00977;933.5215;;;;
2019/12/19 14:22:15;;;;;;;29.8;4.5;;;;;;;15.62;40.32813;933.4783;;;;
2019/12/19 14:24:44;;;;;;;74.3;25.1;;;;;;;15.44;41.3623;933.4197;;;;
2019/12/19 14:27:47;;;;;;;120.9;53.4;;;;;;;15.49;42.15137;933.415;;;;
2019/12/19 14:30:14;;;;;;;16.7;7.9;;;;;;;15.17;42.79004;933.4182;;;;
2019/12/19 14:32:46;;;;;;;20.4;6.3;;;;;;;14.67;43.83691;933.4362;;;;
2019/12/19 14:35:10;;;;;;;18.7;6.9;;;;;;;14.48;44.6582;933.3777;;;;
2019/12/19 14:37:41;;;;;;;30.3;7.3;;;;;;;14.3;44.96191;933.3041;;;;
2019/12/19 14:40:05;;;;;;;24.8;7.5;;;;;;;14.27;45.56836;933.2758;;;;
2019/12/19 14:42:58;;;;;;;23.5;9.9;;;;;;;14.15;46.08691;933.3385;;;;
2019/12/19 14:45:23;;;;;;;36.4;15.8;;;;;;;13.9;46.34766;933.31;;;;
2019/12/19 14:48:00;;;;;;;584.8;478.4;;;;;;;13.94;44.4873;933.3008;;;;
2019/12/19 14:50:22;;;;;;;20.9;8.3;;;;;;;14.07;43.33887;933.2955;;;;